Kyrock, Kentucky
Current Conditions -  °F | °C
As of 6:53 AM on Sunday 23 Nov 2014 (Local Time) from KBWG Reporting Station
Overcast Overcast  
Wind Chill: 51°   Ceiling: 4900
Heat Index: 51°   Visibility: 10mi
Dew Point: 42°   Wind: 5mph
Humidity: 71%   Direction: 70°ENE
Pressure: 29.92"   Gusts: NA
Location:  37.2612°N, 86.3064°W
Report Text: KBWG 231253Z AUTO 07004KT 10SM OVC049 11/06 A2992 RMK AO2 SLP131 T01060056
Loading
Personal Weather Stations






























Interactive Weather Map New forecast layout! Learn more

10-Day Weather Forecast

Advertisements
Track Severe Weather on mobile